Time;durP1;ratioP1;P1;durP2;ratioP2;P2;SDS_P1;SDS_P2;PMS_P1;PMS_P2;Temp;Humidity;BMP_temperature;BMP_pressure;BME280_temperature;BME280_humidity;BME280_pressure;Samples;Min_cycle;Max_cycle;Signal;HPM_P1;HPM_P2
2021/06/18 00:01:39;;;;;;;12.32;6.95;;;;;;;21.59;60.75;100439.59;5055681;28;20120;-72
2021/06/18 00:04:08;;;;;;;10.10;6.15;;;;;;;21.84;59.88;100437.91;5056118;28;20457;-74
2021/06/18 00:06:37;;;;;;;10.02;6.93;;;;;;;21.60;61.02;100436.72;5055795;28;20072;-72
2021/06/18 00:09:08;;;;;;;15.50;7.30;;;;;;;21.54;61.22;100440.09;5056030;28;20455;-74
2021/06/18 00:11:38;;;;;;;10.45;6.63;;;;;;;21.52;61.18;100428.56;5055668;28;20049;-76
2021/06/18 00:14:06;;;;;;;10.82;7.03;;;;;;;21.45;61.04;100432.91;5055806;28;20060;-74
2021/06/18 00:16:35;;;;;;;13.82;7.10;;;;;;;21.36;61.78;100433.84;5055534;28;20041;-74
2021/06/18 00:19:04;;;;;;;10.05;6.90;;;;;;;21.30;61.93;100429.03;5055824;28;20045;-73
2021/06/18 00:21:33;;;;;;;11.50;7.28;;;;;;;21.48;61.24;100426.31;5055278;28;20049;-74
2021/06/18 00:24:02;;;;;;;9.93;6.93;;;;;;;21.46;61.06;100437.31;5055529;28;20041;-74
2021/06/18 00:26:30;;;;;;;9.75;6.32;;;;;;;21.49;60.33;100428.84;5055515;28;20044;-73
2021/06/18 00:28:58;;;;;;;12.43;7.00;;;;;;;21.27;61.58;100435.63;5054119;28;20072;-74
2021/06/18 00:31:27;;;;;;;9.43;6.32;;;;;;;21.38;61.17;100432.66;5055363;28;20433;-74
2021/06/18 00:33:55;;;;;;;10.13;6.65;;;;;;;21.33;61.38;100428.75;5055393;28;20037;-75
2021/06/18 00:36:24;;;;;;;11.23;6.50;;;;;;;21.26;61.18;100423.09;5055119;28;20044;-75
2021/06/18 00:38:53;;;;;;;10.75;6.95;;;;;;;21.25;61.18;100415.94;5055206;28;20041;-75
2021/06/18 00:41:22;;;;;;;11.98;6.75;;;;;;;21.35;60.82;100421.28;5055089;28;20041;-78
2021/06/18 00:43:53;;;;;;;10.55;7.18;;;;;;;21.12;61.74;100429.00;5055372;28;20049;-76
2021/06/18 00:46:22;;;;;;;9.85;6.72;;;;;;;20.93;62.63;100421.88;5055355;28;20045;-75
2021/06/18 00:48:52;;;;;;;9.95;6.85;;;;;;;20.87;62.54;100427.94;5055152;28;20067;-75
2021/06/18 00:51:20;;;;;;;9.75;6.60;;;;;;;20.91;62.73;100428.47;5054972;28;20048;-77
2021/06/18 00:53:49;;;;;;;9.02;6.93;;;;;;;20.86;62.98;100431.66;5055130;28;20116;-77
2021/06/18 00:56:19;;;;;;;11.35;6.85;;;;;;;20.75;63.06;100440.00;5053550;28;20041;-74
2021/06/18 00:58:48;;;;;;;9.68;6.65;;;;;;;20.68;63.31;100428.09;5054716;28;20069;-74
2021/06/18 01:01:16;;;;;;;10.73;6.88;;;;;;;20.68;63.54;100430.78;5054859;28;20045;-77
2021/06/18 01:03:45;;;;;;;10.23;6.90;;;;;;;20.91;62.44;100429.34;5054438;28;20041;-78
2021/06/18 01:06:21;;;;;;;9.75;6.80;;;;;;;20.89;62.23;100430.50;5036911;28;20060;-81
2021/06/18 01:08:55;;;;;;;8.85;6.75;;;;;;;20.89;62.49;100425.94;5054861;28;20052;-81
2021/06/18 01:11:32;;;;;;;11.07;6.97;;;;;;;20.73;62.73;100431.16;5054749;28;20045;-81
2021/06/18 01:14:06;;;;;;;12.07;6.68;;;;;;;20.70;63.04;100431.50;5055084;28;20123;-82
2021/06/18 01:16:37;;;;;;;9.50;7.05;;;;;;;20.65;63.13;100431.09;5054414;28;20120;-79
2021/06/18 01:19:19;;;;;;;9.00;6.68;;;;;;;20.49;63.85;100435.34;5054655;28;20099;-77
2021/06/18 01:21:53;;;;;;;12.60;6.57;;;;;;;20.66;62.82;100435.53;5054506;28;20401;-77
2021/06/18 01:24:35;;;;;;;9.50;6.70;;;;;;;20.82;62.22;100432.97;5054703;28;20087;-76
2021/06/18 01:27:15;;;;;;;12.15;7.22;;;;;;;20.73;62.72;100423.88;5054769;28;20052;-76
2021/06/18 01:29:47;;;;;;;10.05;6.43;;;;;;;20.61;63.17;100426.97;5052936;28;20068;-76
2021/06/18 01:32:21;;;;;;;10.45;6.88;;;;;;;20.57;63.29;100431.88;5054440;28;20051;-76
2021/06/18 01:34:51;;;;;;;9.93;7.22;;;;;;;20.49;63.81;100435.34;5052930;28;20110;-73
2021/06/18 01:37:25;;;;;;;9.27;6.88;;;;;;;20.36;64.20;100431.22;5054116;28;20529;-73
2021/06/18 01:39:55;;;;;;;12.50;6.90;;;;;;;20.51;63.38;100438.75;5054197;28;20098;-73
2021/06/18 01:42:25;;;;;;;9.48;6.60;;;;;;;20.48;63.46;100430.91;5054266;28;20482;-72
2021/06/18 01:44:56;;;;;;;11.25;6.55;;;;;;;20.58;62.66;100437.13;5053265;28;20064;-73
2021/06/18 01:47:25;;;;;;;11.43;6.93;;;;;;;20.36;63.54;100434.78;5053942;28;20047;-71
2021/06/18 01:49:54;;;;;;;12.88;7.22;;;;;;;20.41;63.04;100437.06;5054090;28;20087;-72
2021/06/18 01:52:24;;;;;;;11.63;6.68;;;;;;;20.33;63.77;100445.94;5053851;28;20129;-74
2021/06/18 01:54:54;;;;;;;9.73;6.60;;;;;;;20.24;64.68;100439.56;5053922;28;20068;-74
2021/06/18 01:57:24;;;;;;;11.38;7.55;;;;;;;20.28;64.12;100445.53;5053993;28;20041;-74
2021/06/18 01:59:56;;;;;;;10.65;7.05;;;;;;;20.62;62.16;100436.81;5053709;28;20047;-74
2021/06/18 02:02:27;;;;;;;12.63;6.80;;;;;;;20.45;63.22;100439.31;5053904;28;20072;-74
2021/06/18 02:04:57;;;;;;;10.95;7.10;;;;;;;20.21;64.15;100433.59;5053943;28;20052;-74
2021/06/18 02:07:26;;;;;;;9.13;6.93;;;;;;;20.08;64.98;100444.78;5053588;28;20049;-74
2021/06/18 02:09:58;;;;;;;10.27;6.50;;;;;;;20.14;64.65;100441.44;5053518;28;20485;-74
2021/06/18 02:12:26;;;;;;;13.88;7.05;;;;;;;20.12;64.62;100448.03;5053588;28;20069;-75
2021/06/18 02:14:58;;;;;;;10.35;7.43;;;;;;;20.18;64.22;100447.44;5053542;28;20045;-74
2021/06/18 02:17:28;;;;;;;9.00;6.72;;;;;;;20.22;64.31;100444.28;5053712;28;20052;-74
2021/06/18 02:20:01;;;;;;;11.18;7.30;;;;;;;20.10;64.67;100433.78;5053656;28;20037;-74
2021/06/18 02:22:31;;;;;;;8.27;6.85;;;;;;;19.99;65.27;100446.50;5053313;28;20123;-76
2021/06/18 02:25:01;;;;;;;9.38;7.30;;;;;;;20.00;65.14;100445.50;5053383;28;20052;-74
2021/06/18 02:27:33;;;;;;;10.75;7.30;;;;;;;19.98;65.29;100450.22;5053289;28;20063;-75
2021/06/18 02:30:04;;;;;;;9.23;7.20;;;;;;;19.97;65.32;100450.34;5053408;28;20041;-75
2021/06/18 02:32:34;;;;;;;10.45;7.32;;;;;;;19.95;65.82;100447.78;5053060;28;20037;-75
2021/06/18 02:35:05;;;;;;;10.20;7.43;;;;;;;19.74;66.49;100439.03;5053296;28;20044;-78
2021/06/18 02:37:33;;;;;;;12.15;7.30;;;;;;;19.75;67.00;100435.31;5053220;28;20470;-77
2021/06/18 02:40:02;;;;;;;11.35;7.93;;;;;;;19.92;65.98;100441.84;5053269;28;20055;-77
2021/06/18 02:42:30;;;;;;;11.57;7.50;;;;;;;19.70;67.24;100432.22;5053032;28;20083;-74
2021/06/18 02:44:59;;;;;;;11.35;8.20;;;;;;;19.83;66.93;100437.31;5053140;28;20047;-74
2021/06/18 02:47:36;;;;;;;10.95;7.53;;;;;;;19.82;66.78;100441.00;5053020;28;20045;-74
2021/06/18 02:50:12;;;;;;;11.38;7.60;;;;;;;19.78;67.05;100439.59;5053140;28;20064;-72
2021/06/18 02:52:47;;;;;;;11.82;7.55;;;;;;;19.54;68.26;100453.56;5052109;28;20041;-72
2021/06/18 02:55:18;;;;;;;11.05;7.95;;;;;;;19.49;68.66;100454.00;5052783;28;20048;-72
2021/06/18 02:57:56;;;;;;;12.85;7.50;;;;;;;19.55;68.11;100444.47;5052587;28;20139;-71
2021/06/18 03:00:29;;;;;;;11.63;7.78;;;;;;;19.70;67.83;100445.75;5052832;28;20075;-73
2021/06/18 03:02:59;;;;;;;10.50;7.78;;;;;;;19.70;67.94;100449.31;5052817;28;20508;-72
2021/06/18 03:05:30;;;;;;;10.32;8.13;;;;;;;19.59;68.45;100446.78;5053097;28;20441;-73
2021/06/18 03:08:01;;;;;;;11.23;8.75;;;;;;;19.50;69.07;100442.19;5052659;28;20049;-73
2021/06/18 03:10:36;;;;;;;12.98;7.68;;;;;;;19.49;69.02;100447.72;5052740;28;20045;-74
2021/06/18 03:13:10;;;;;;;10.50;8.38;;;;;;;19.74;67.96;100444.44;5052607;28;20045;-74
2021/06/18 03:15:41;;;;;;;13.68;7.95;;;;;;;19.59;68.74;100445.91;5052884;28;20045;-74
2021/06/18 03:18:13;;;;;;;11.73;7.90;;;;;;;19.96;67.31;100438.66;5052939;28;20136;-73
2021/06/18 03:20:43;;;;;;;12.77;8.20;;;;;;;19.88;67.36;100427.75;5052662;28;20053;-74
2021/06/18 03:23:16;;;;;;;12.30;8.45;;;;;;;19.82;67.61;100430.19;5052868;28;20057;-74
2021/06/18 03:25:45;;;;;;;;;;;;;;;19.92;67.36;100421.03;5051670;28;20107;-72
2021/06/18 03:28:15;;;;;;;15.48;7.97;;;;;;;20.11;66.71;100422.81;5052562;28;20027;-73
2021/06/18 03:30:47;;;;;;;13.13;8.13;;;;;;;20.18;66.44;100425.78;5052212;28;20481;-74
2021/06/18 03:33:18;;;;;;;14.73;8.75;;;;;;;20.47;65.79;100426.50;5052648;28;20047;-74
2021/06/18 03:35:48;;;;;;;13.13;7.70;;;;;;;21.18;62.87;100430.25;5052346;28;20132;-73
2021/06/18 03:38:17;;;;;;;9.85;7.10;;;;;;;22.38;58.72;100412.22;5052457;28;20090;-74
2021/06/18 03:40:46;;;;;;;12.25;7.50;;;;;;;23.46;55.55;100420.41;5052252;28;20045;-73
2021/06/18 03:43:16;;;;;;;11.10;7.32;;;;;;;24.12;53.18;100421.97;5052464;28;20049;-73
2021/06/18 03:45:47;;;;;;;10.27;7.10;;;;;;;24.61;51.38;100429.97;5052276;28;20498;-73
2021/06/18 03:48:21;;;;;;;9.50;7.15;;;;;;;25.28;49.79;100430.22;5052420;28;20048;-73
2021/06/18 03:50:49;;;;;;;12.07;7.07;;;;;;;25.86;47.80;100434.16;5052669;28;20059;-73
2021/06/18 03:53:18;;;;;;;10.32;6.88;;;;;;;25.52;48.47;100432.75;5052583;28;20087;-76
2021/06/18 03:55:47;;;;;;;10.73;6.65;;;;;;;25.74;47.91;100431.03;5052161;28;20398;-73
2021/06/18 03:58:19;;;;;;;8.65;6.50;;;;;;;26.07;47.37;100436.16;5052357;28;20059;-75
2021/06/18 04:00:49;;;;;;;9.90;6.80;;;;;;;26.74;46.02;100436.88;5050742;28;20048;-73
2021/06/18 04:03:20;;;;;;;9.80;6.90;;;;;;;26.81;45.34;100443.22;5053727;28;20055;-74
2021/06/18 04:05:51;;;;;;;10.52;6.28;;;;;;;26.46;45.87;100446.81;5055640;28;20041;-75
2021/06/18 04:08:21;;;;;;;9.32;6.38;;;;;;;27.01;44.30;100445.34;5056345;28;20392;-76
2021/06/18 04:10:50;;;;;;;13.85;6.57;;;;;;;27.32;43.81;100445.91;5055400;28;20121;-74
2021/06/18 04:13:18;;;;;;;12.18;6.88;;;;;;;27.64;43.05;100440.91;5055611;28;20037;-74
2021/06/18 04:15:47;;;;;;;10.43;7.00;;;;;;;27.62;43.08;100443.00;5055456;28;20052;-75
2021/06/18 04:18:21;;;;;;;9.73;6.47;;;;;;;27.59;43.02;100451.59;5055977;28;20076;-74
2021/06/18 04:20:51;;;;;;;10.63;6.50;;;;;;;27.67;42.46;100443.28;5055405;28;20045;-73
2021/06/18 04:23:20;;;;;;;11.82;6.63;;;;;;;26.85;44.99;100451.91;5055548;28;20445;-74
2021/06/18 04:25:48;;;;;;;10.00;6.60;;;;;;;27.82;42.24;100454.16;5054084;28;20558;-73
2021/06/18 04:28:16;;;;;;;11.15;6.18;;;;;;;28.48;40.15;100455.44;5055418;28;20112;-72
2021/06/18 04:30:44;;;;;;;10.63;6.40;;;;;;;26.99;43.38;100453.75;5055211;28;20049;-74
2021/06/18 04:33:13;;;;;;;9.68;6.47;;;;;;;27.39;42.71;100449.53;5055465;28;20048;-74
2021/06/18 04:35:42;;;;;;;8.85;5.88;;;;;;;29.23;38.97;100450.81;5055027;28;20044;-75
2021/06/18 04:38:11;;;;;;;9.68;6.25;;;;;;;29.39;38.31;100443.25;5055210;28;20536;-74
2021/06/18 04:40:39;;;;;;;9.25;5.38;;;;;;;29.71;37.21;100447.06;5054872;28;20045;-75
2021/06/18 04:43:08;;;;;;;11.18;5.68;;;;;;;29.66;37.43;100444.97;5055276;28;20482;-74
2021/06/18 04:45:36;;;;;;;9.25;5.82;;;;;;;29.42;36.95;100440.06;5055241;28;20040;-72
2021/06/18 04:48:06;;;;;;;8.75;5.47;;;;;;;29.72;36.83;100446.00;5054914;28;20094;-72
2021/06/18 04:50:35;;;;;;;8.07;5.15;;;;;;;30.30;36.27;100443.38;5055031;28;20103;-70
2021/06/18 04:53:08;;;;;;;7.50;5.00;;;;;;;30.57;35.23;100444.97;5054511;28;20421;-71
2021/06/18 04:55:37;;;;;;;9.50;6.15;;;;;;;30.81;35.15;100439.84;5055043;28;20049;-71
2021/06/18 04:58:06;;;;;;;10.57;5.28;;;;;;;31.65;33.24;100435.88;5054968;28;20044;-73
2021/06/18 05:00:34;;;;;;;9.05;5.70;;;;;;;31.37;33.49;100441.84;5054877;28;20041;-73
2021/06/18 05:03:03;;;;;;;10.18;5.93;;;;;;;31.17;33.88;100441.94;5054537;28;20053;-73
2021/06/18 05:05:31;;;;;;;11.38;5.80;;;;;;;31.97;32.70;100437.50;5054577;28;20033;-73
2021/06/18 05:08:00;;;;;;;7.07;5.35;;;;;;;30.95;33.96;100441.44;5053236;28;20063;-71
2021/06/18 05:10:29;;;;;;;9.40;5.65;;;;;;;30.99;34.46;100439.94;5054596;28;20072;-73
2021/06/18 05:12:58;;;;;;;10.27;5.85;;;;;;;31.59;33.40;100454.16;5054241;28;20103;-71
2021/06/18 05:15:26;;;;;;;8.65;5.45;;;;;;;32.10;32.59;100462.19;5053857;28;20063;-70
2021/06/18 05:17:54;;;;;;;8.63;5.43;;;;;;;32.70;31.82;100461.53;5054101;28;20045;-72
2021/06/18 05:20:23;;;;;;;7.93;5.25;;;;;;;32.35;32.59;100456.66;5054784;28;20047;-71
2021/06/18 05:22:52;;;;;;;10.35;5.30;;;;;;;32.03;33.19;100460.56;5054195;28;20517;-70
2021/06/18 05:25:20;;;;;;;9.20;5.35;;;;;;;32.35;32.50;100459.41;5054678;28;20048;-70
2021/06/18 05:27:50;;;;;;;10.80;5.05;;;;;;;32.52;31.85;100453.25;5054498;28;20099;-71
2021/06/18 05:30:20;;;;;;;8.02;5.10;;;;;;;33.18;31.24;100453.22;5054552;28;20067;-72
2021/06/18 05:32:49;;;;;;;9.23;5.15;;;;;;;33.17;31.53;100459.81;5054253;28;20044;-73
2021/06/18 05:35:18;;;;;;;10.52;6.00;;;;;;;33.56;30.40;100465.84;5054650;28;20135;-73
2021/06/18 05:37:47;;;;;;;7.18;5.18;;;;;;;33.82;30.13;100459.88;5053971;28;20545;-74
2021/06/18 05:40:15;;;;;;;9.48;4.80;;;;;;;34.11;29.21;100463.63;5054230;28;20083;-73
2021/06/18 05:42:44;;;;;;;8.85;4.95;;;;;;;33.06;29.62;100465.31;5054100;28;20459;-73
2021/06/18 05:45:14;;;;;;;7.68;4.53;;;;;;;32.06;31.57;100460.13;5054305;28;20045;-72
2021/06/18 05:47:43;;;;;;;7.45;4.75;;;;;;;32.68;30.98;100452.63;5053259;28;20443;-76
2021/06/18 05:50:12;;;;;;;6.95;4.70;;;;;;;32.23;31.32;100452.06;5054110;28;20057;-73
2021/06/18 05:52:41;;;;;;;7.63;5.15;;;;;;;32.15;31.52;100451.31;5054079;28;20045;-73
2021/06/18 05:55:10;;;;;;;7.45;4.65;;;;;;;32.81;30.41;100449.69;5053966;28;20045;-73
2021/06/18 05:57:38;;;;;;;6.03;4.40;;;;;;;32.58;30.43;100452.34;5053745;28;20069;-74
2021/06/18 06:00:08;;;;;;;8.27;4.88;;;;;;;32.56;30.48;100451.72;5053751;28;20547;-73
2021/06/18 06:02:39;;;;;;;6.40;4.50;;;;;;;32.71;30.26;100463.19;5054069;28;20053;-73
2021/06/18 06:05:08;;;;;;;11.63;7.60;;;;;;;33.30;29.59;100462.41;5053811;28;20392;-72
2021/06/18 06:07:36;;;;;;;8.73;5.32;;;;;;;31.97;31.47;100458.75;5053744;28;20490;-73
2021/06/18 06:10:05;;;;;;;10.80;5.85;;;;;;;32.89;30.20;100460.44;5053264;28;20059;-74
2021/06/18 06:12:35;;;;;;;8.10;4.85;;;;;;;32.67;30.96;100464.75;5053920;28;20063;-77
2021/06/18 06:15:04;;;;;;;9.60;4.90;;;;;;;32.73;30.20;100464.69;5053695;28;20041;-72
2021/06/18 06:17:32;;;;;;;6.35;4.47;;;;;;;33.75;29.28;100461.91;5053714;28;20584;-76
2021/06/18 06:20:02;;;;;;;10.15;5.13;;;;;;;34.30;28.13;100477.31;5053330;28;20116;-71
2021/06/18 06:22:30;;;;;;;9.15;5.00;;;;;;;33.64;29.07;100461.91;5053570;28;20037;-72
2021/06/18 06:24:59;;;;;;;12.93;5.75;;;;;;;33.94;28.29;100467.34;5053444;28;20049;-77
2021/06/18 06:27:30;;;;;;;7.00;4.40;;;;;;;33.14;29.65;100465.00;5052735;28;20486;-76
2021/06/18 06:29:58;;;;;;;6.90;4.80;;;;;;;33.88;28.71;100466.41;5053150;28;20037;-76
2021/06/18 06:32:26;;;;;;;8.75;4.78;;;;;;;34.01;28.93;100463.38;5053313;28;20044;-76
2021/06/18 06:34:54;;;;;;;7.05;4.30;;;;;;;34.67;27.98;100456.56;5053138;28;20056;-77
2021/06/18 06:37:24;;;;;;;10.55;4.85;;;;;;;34.90;27.32;100454.81;5053146;28;20076;-78
2021/06/18 06:39:53;;;;;;;11.85;4.90;;;;;;;35.58;26.97;100453.88;5053471;28;20045;-79
2021/06/18 06:42:21;;;;;;;8.25;4.55;;;;;;;35.26;26.84;100448.84;5052602;28;20112;-80
2021/06/18 06:44:49;;;;;;;9.27;5.15;;;;;;;34.81;27.26;100459.88;5052705;28;20045;-76
2021/06/18 06:47:18;;;;;;;7.38;4.70;;;;;;;35.40;26.50;100454.09;5053104;28;20095;-74
2021/06/18 06:49:47;;;;;;;7.30;4.40;;;;;;;35.09;27.00;100456.28;5052651;28;20098;-74
2021/06/18 06:52:16;;;;;;;9.20;5.75;;;;;;;34.05;28.60;100459.03;5052887;28;20051;-73
2021/06/18 06:54:48;;;;;;;7.60;4.78;;;;;;;34.83;27.25;100459.63;5053099;28;20053;-73
2021/06/18 06:57:18;;;;;;;7.05;3.58;;;;;;;34.95;27.24;100452.16;5052669;28;20049;-73
2021/06/18 06:59:46;;;;;;;7.47;4.32;;;;;;;34.36;28.15;100452.28;5053193;28;20049;-73
2021/06/18 07:02:14;;;;;;;10.02;4.18;;;;;;;33.43;29.39;100461.38;5052786;28;20047;-73
2021/06/18 07:04:45;;;;;;;6.47;4.45;;;;;;;32.62;31.34;100456.31;5053232;28;20037;-73
2021/06/18 07:07:16;;;;;;;7.22;4.35;;;;;;;32.02;31.69;100456.97;5052870;28;20052;-73
2021/06/18 07:09:44;;;;;;;8.05;4.95;;;;;;;31.87;32.51;100462.84;5052900;28;20045;-73
2021/06/18 07:12:14;;;;;;;8.45;4.45;;;;;;;31.58;33.69;100458.00;5052379;28;20047;-73
2021/06/18 07:14:42;;;;;;;7.72;4.70;;;;;;;31.69;33.15;100461.94;5052841;28;20091;-74
2021/06/18 07:17:10;;;;;;;7.60;4.70;;;;;;;32.03;32.18;100457.81;5052612;28;20402;-73
2021/06/18 07:19:38;;;;;;;6.82;3.97;;;;;;;31.87;31.94;100451.81;5052647;28;20128;-74
2021/06/18 07:22:09;;;;;;;7.00;4.22;;;;;;;31.34;32.73;100448.63;5052860;28;20052;-74
2021/06/18 07:24:38;;;;;;;6.65;3.90;;;;;;;30.99;32.99;100450.97;5052783;28;20091;-73
2021/06/18 07:27:06;;;;;;;6.38;4.38;;;;;;;30.63;33.35;100444.13;5052416;28;20486;-74
2021/06/18 07:29:36;;;;;;;9.77;4.18;;;;;;;30.26;34.61;100442.16;5052567;28;20418;-74
2021/06/18 07:32:05;;;;;;;11.73;4.38;;;;;;;30.45;35.06;100432.97;5052282;28;20052;-74
2021/06/18 07:34:33;;;;;;;6.40;3.90;;;;;;;30.40;34.67;100432.78;5052658;28;20530;-73
2021/06/18 07:37:02;;;;;;;6.28;4.13;;;;;;;29.61;35.28;100442.84;5052451;28;20044;-74
2021/06/18 07:39:47;;;;;;;6.45;3.83;;;;;;;29.85;35.26;100435.00;5055915;28;20455;-74
2021/06/18 07:42:28;;;;;;;8.40;4.15;;;;;;;29.89;35.68;100430.75;5056473;28;20095;-74
2021/06/18 07:44:58;;;;;;;8.70;3.70;;;;;;;30.05;35.00;100434.97;5055920;28;20102;-74
2021/06/18 07:47:26;;;;;;;11.45;4.35;;;;;;;30.26;34.89;100436.66;5056510;28;20049;-74
2021/06/18 07:49:54;;;;;;;7.13;3.85;;;;;;;30.20;34.88;100430.94;5056376;28;20114;-74
2021/06/18 07:52:23;;;;;;;6.35;3.97;;;;;;;30.13;35.11;100432.88;5056302;28;20378;-74
2021/06/18 07:54:55;;;;;;;7.68;3.60;;;;;;;30.12;34.19;100428.44;5056195;28;20045;-73
2021/06/18 07:57:24;;;;;;;6.82;3.78;;;;;;;29.95;35.82;100429.91;5056367;28;20438;-74
2021/06/18 07:59:52;;;;;;;7.57;4.07;;;;;;;30.01;35.38;100426.28;5056019;28;20133;-76
2021/06/18 08:02:22;;;;;;;8.95;5.60;;;;;;;29.87;35.51;100413.66;5056102;28;20124;-73
2021/06/18 08:04:51;;;;;;;9.55;4.20;;;;;;;29.96;34.90;100425.25;5056250;28;20065;-72
2021/06/18 08:07:21;;;;;;;11.45;7.85;;;;;;;30.03;35.38;100426.94;5056055;28;20037;-72
2021/06/18 08:09:49;;;;;;;11.88;7.80;;;;;;;30.05;35.46;100435.81;5055834;28;20155;-73
2021/06/18 08:12:18;;;;;;;9.43;4.32;;;;;;;30.12;35.50;100439.44;5055794;28;20041;-73
2021/06/18 08:14:46;;;;;;;6.97;4.03;;;;;;;30.23;35.80;100431.59;5055847;28;20049;-73
2021/06/18 08:17:14;;;;;;;7.60;4.00;;;;;;;30.34;35.20;100436.41;5055786;28;20045;-72
2021/06/18 08:19:44;;;;;;;7.47;3.88;;;;;;;30.56;34.84;100432.28;5055941;28;20489;-72
2021/06/18 08:22:12;;;;;;;10.40;4.20;;;;;;;30.57;34.98;100428.47;5055686;28;20041;-74
2021/06/18 08:24:41;;;;;;;5.78;3.45;;;;;;;30.38;34.68;100430.25;5055991;28;20045;-73
2021/06/18 08:27:09;;;;;;;7.75;3.90;;;;;;;30.42;35.26;100436.19;5055417;28;20048;-73
2021/06/18 08:29:37;;;;;;;8.73;4.05;;;;;;;30.65;34.33;100433.75;5055436;28;20069;-74
2021/06/18 08:32:06;;;;;;;7.13;4.53;;;;;;;30.48;35.06;100424.28;5055432;28;20041;-73
2021/06/18 08:34:36;;;;;;;9.02;4.10;;;;;;;30.76;34.57;100427.56;5055690;28;20037;-74
2021/06/18 08:37:06;;;;;;;5.38;3.75;;;;;;;30.75;34.63;100425.03;5055343;28;20068;-74
2021/06/18 08:39:35;;;;;;;7.40;4.60;;;;;;;30.33;34.48;100431.97;5055635;28;20052;-74
2021/06/18 08:42:04;;;;;;;7.68;3.70;;;;;;;30.24;34.96;100417.59;5055173;28;20036;-75
2021/06/18 08:44:33;;;;;;;5.70;4.05;;;;;;;30.47;34.40;100409.66;5055305;28;20071;-74
2021/06/18 08:47:01;;;;;;;6.95;3.63;;;;;;;30.36;34.85;100415.88;5055231;28;20082;-74
2021/06/18 08:49:29;;;;;;;8.13;4.47;;;;;;;30.49;35.13;100412.19;5054642;28;20057;-73
2021/06/18 08:51:58;;;;;;;6.60;3.97;;;;;;;30.52;34.87;100406.28;5055079;28;20044;-74
2021/06/18 08:57:21;;;;;;;6.38;4.03;;;;;;;31.01;33.05;100418.53;5150235;27;111883;-74
2021/06/18 08:59:51;;;;;;;8.13;4.10;;;;;;;30.74;33.43;100410.41;5151803;27;20396;-74
2021/06/18 09:02:19;;;;;;;10.95;4.15;;;;;;;30.86;34.16;100415.22;5152262;27;20441;-73
2021/06/18 09:05:08;;;;;;;16.17;3.85;;;;;;;30.90;33.53;100411.81;5151967;27;20051;-72
2021/06/18 09:07:59;;;;;;;10.40;3.83;;;;;;;30.88;32.93;100407.59;5152067;27;20039;-74
2021/06/18 09:10:39;;;;;;;7.72;3.80;;;;;;;31.11;31.54;100413.38;5151696;27;20103;-74
2021/06/18 09:13:12;;;;;;;5.25;3.40;;;;;;;30.97;31.41;100400.75;5151558;27;20447;-74
2021/06/18 09:15:44;;;;;;;5.70;3.67;;;;;;;30.97;31.52;100406.25;5151573;27;20541;-74
2021/06/18 09:18:34;;;;;;;5.13;3.10;;;;;;;30.91;30.76;100401.66;5151355;27;20498;-74
2021/06/18 09:21:19;;;;;;;4.80;2.80;;;;;;;30.84;29.44;100400.84;5151485;27;20275;-74
2021/06/18 09:23:49;;;;;;;9.35;5.47;;;;;;;30.82;30.36;100411.25;5149967;27;20116;-74
2021/06/18 09:26:21;;;;;;;16.30;11.20;;;;;;;31.12;31.18;100406.78;5151479;27;20042;-73
2021/06/18 09:29:04;;;;;;;5.65;3.50;;;;;;;31.01;31.60;100402.00;5151547;27;20063;-73
2021/06/18 09:31:34;;;;;;;6.45;3.05;;;;;;;30.96;29.72;100401.81;5151804;27;20050;-74
2021/06/18 09:34:04;;;;;;;3.95;2.70;;;;;;;31.09;30.09;100398.16;5151215;27;20430;-74
2021/06/18 09:36:32;;;;;;;4.60;2.60;;;;;;;31.14;28.60;100396.41;5151208;27;20449;-74
2021/06/18 09:39:01;;;;;;;6.13;2.78;;;;;;;31.15;29.09;100394.47;5150992;27;20095;-73
2021/06/18 09:41:34;;;;;;;15.75;3.13;;;;;;;31.39;29.44;100401.13;5151399;27;20042;-74
2021/06/18 09:44:06;;;;;;;6.28;3.40;;;;;;;31.53;30.40;100394.41;5151099;27;20049;-74
2021/06/18 09:46:46;;;;;;;6.82;3.70;;;;;;;31.47;31.71;100389.81;5133204;27;20051;-73
2021/06/18 09:49:31;;;;;;;5.65;3.58;;;;;;;31.58;31.42;100397.34;5150965;27;20126;-73
2021/06/18 09:52:01;;;;;;;5.88;3.60;;;;;;;31.23;31.79;100381.31;5150662;27;20043;-74
2021/06/18 09:54:32;;;;;;;6.30;4.20;;;;;;;31.47;31.96;100389.81;5151295;27;20043;-73
2021/06/18 09:57:08;;;;;;;5.40;3.75;;;;;;;31.56;31.00;100374.69;5150261;27;20488;-76
2021/06/18 09:59:48;;;;;;;10.80;3.72;;;;;;;31.39;30.11;100388.19;5150797;27;20066;-74
2021/06/18 10:02:18;;;;;;;6.40;3.30;;;;;;;31.36;30.80;100385.00;5150504;27;20117;-74
2021/06/18 10:04:49;;;;;;;5.68;3.15;;;;;;;31.34;30.57;100380.56;5150812;27;20084;-74
2021/06/18 10:07:20;;;;;;;7.40;3.60;;;;;;;31.29;31.25;100385.94;5144682;27;20049;-74
2021/06/18 10:09:49;;;;;;;7.07;3.50;;;;;;;31.05;30.55;100381.19;5136905;27;20035;-74
2021/06/18 10:12:21;;;;;;;6.28;3.50;;;;;;;31.01;30.55;100375.31;5136741;27;20070;-73
2021/06/18 10:14:51;;;;;;;6.28;3.45;;;;;;;31.20;30.13;100368.00;5136585;27;20043;-74
2021/06/18 10:17:19;;;;;;;8.05;3.58;;;;;;;31.02;31.01;100359.63;5136314;27;20129;-74
2021/06/18 10:19:48;;;;;;;7.30;3.80;;;;;;;31.21;31.14;100368.84;5136563;27;20072;-73
2021/06/18 10:22:19;;;;;;;5.63;3.40;;;;;;;31.18;31.36;100364.59;5135964;27;20051;-74
2021/06/18 10:24:54;;;;;;;7.90;3.80;;;;;;;31.40;30.53;100355.94;5136424;27;20394;-74
2021/06/18 10:27:29;;;;;;;7.13;3.70;;;;;;;31.39;29.94;100360.63;5136454;27;20071;-72
2021/06/18 10:29:59;;;;;;;5.93;3.75;;;;;;;31.33;30.21;100356.00;5117673;27;20082;-75
2021/06/18 10:32:32;;;;;;;8.52;4.15;;;;;;;31.40;30.54;100362.31;5136079;27;20130;-74
2021/06/18 10:35:06;;;;;;;7.43;4.10;;;;;;;31.46;31.31;100357.78;5136012;27;20043;-78
2021/06/18 10:37:35;;;;;;;6.47;4.10;;;;;;;31.33;31.75;100354.09;5138043;27;20047;-74
2021/06/18 10:40:10;;;;;;;9.63;4.47;;;;;;;31.48;32.34;100345.50;5136780;27;20047;-78
2021/06/18 10:43:10;;;;;;;7.75;4.38;;;;;;;31.70;32.51;100340.38;5136125;27;20126;-73
2021/06/18 10:46:08;;;;;;;7.53;4.57;;;;;;;31.85;30.41;100346.41;5136302;27;20039;-73
2021/06/18 10:49:10;;;;;;;8.27;4.20;;;;;;;31.84;29.99;100336.41;5135955;27;20042;-73
2021/06/18 10:51:44;;;;;;;9.32;4.60;;;;;;;31.89;30.20;100330.22;5114617;27;20054;-74
2021/06/18 10:54:17;;;;;;;6.72;3.63;;;;;;;31.78;30.35;100334.59;5135842;27;20047;-73
2021/06/18 10:57:03;;;;;;;9.02;4.15;;;;;;;31.65;30.79;100336.59;5135747;27;20173;-74
2021/06/18 10:59:38;;;;;;;6.18;4.03;;;;;;;31.60;30.75;100335.38;5135839;27;20059;-74
2021/06/18 11:02:34;;;;;;;5.82;4.07;;;;;;;31.58;30.91;100326.50;5135373;27;20046;-74
2021/06/18 11:05:06;;;;;;;7.43;3.83;;;;;;;31.63;31.04;100320.28;5135659;27;20046;-72
2021/06/18 11:07:36;;;;;;;6.45;3.78;;;;;;;31.70;30.81;100328.50;5135706;27;20049;-74
2021/06/18 11:10:07;;;;;;;6.90;3.85;;;;;;;31.62;30.27;100332.41;5135532;27;20476;-74
2021/06/18 11:12:40;;;;;;;5.88;3.60;;;;;;;31.79;29.20;100328.00;5135735;27;20488;-72
2021/06/18 11:15:36;;;;;;;7.22;3.85;;;;;;;31.89;29.55;100328.31;5135512;27;20043;-72
2021/06/18 11:18:18;;;;;;;5.25;3.70;;;;;;;32.02;28.74;100318.19;5126027;27;20549;-72
2021/06/18 11:20:55;;;;;;;7.30;4.33;;;;;;;32.12;30.43;100318.47;5134947;27;20122;-72
2021/06/18 11:23:33;;;;;;;8.63;3.80;;;;;;;32.21;31.23;100319.00;5135121;27;20046;-73
2021/06/18 11:26:10;;;;;;;6.68;4.10;;;;;;;32.03;30.99;100317.13;5135437;27;20067;-73
2021/06/18 11:28:56;;;;;;;6.38;3.95;;;;;;;31.84;31.13;100319.88;5135744;27;20483;-72
2021/06/18 11:31:50;;;;;;;6.35;4.35;;;;;;;31.81;31.60;100311.22;5135270;27;20399;-74
2021/06/18 11:34:26;;;;;;;;;;;;;;;32.13;31.47;100306.38;5135398;27;20475;-74
2021/06/18 11:36:55;;;;;;;7.30;4.55;;;;;;;31.93;31.79;100308.53;5135134;27;20279;-74
2021/06/18 11:39:27;;;;;;;10.15;4.90;;;;;;;31.92;32.25;100321.50;5134682;27;20050;-74
2021/06/18 11:42:09;;;;;;;7.82;4.68;;;;;;;32.02;32.20;100315.44;5135162;27;20047;-73
2021/06/18 11:44:38;;;;;;;10.90;4.60;;;;;;;32.10;31.42;100312.38;5135191;27;20044;-74